Latest Weather Observations for Christmas Island

IDW60801

Issued at 6:04 am WST Wednesday 20 January 2021 (issued every 10 minutes, with the page automatically refreshed every 10 minutes)

About weather observations | Map of weather stations | Latest weather observations for WA | Other Formats
Station Details ID: 200790 Name: CHRISTMAS ISLAND AERO Lat: -10.45 Lon: 105.69 Height: 261.0 m
Data from the previous 72 hours. | See also: Recent months at Christmas Island
Date/Time
WST
Temp
°C
App
Temp
°C
Dew
Point
°C
Rel
Hum
%
Delta-T
°C
Wind Press
QNH
hPa
Press
MSL
hPa
Rain since
9am
mm
Dir  Spd
km/h
Gust
km/h
Spd
kts
Gust
kts
20/06:00am 24.2 26.9 23.5 96 0.5 NW 15 24 8 13 1007.9 1006.2 29.2
20/05:30am 24.1 26.5 23.6 97 0.3 NNW 17 24 9 13 1007.6 1006.0 29.2
20/05:13am 23.7 26.2 23.2 97 0.3 NW 15 24 8 13 1007.6 1006.0 29.2
20/05:00am 23.7 26.6 23.2 97 0.3 NNW 13 22 7 12 1007.6 1006.0 29.2
20/04:49am 23.6 26.8 23.1 97 0.3 NW 11 19 6 10 1007.6 1006.0 28.6
20/04:46am 23.6 26.8 23.1 97 0.3 NW 11 20 6 11 1007.6 1006.0 28.4
20/04:33am 23.5 26.3 23.0 97 0.3 NW 13 30 7 16 1007.6 1006.0 28.4
20/04:30am 23.4 26.5 22.9 97 0.3 NW 11 20 6 11 1007.6 1006.0 28.4
20/04:12am 23.4 26.1 22.9 97 0.3 NW 13 22 7 12 1007.5 1005.9 27.4
20/04:11am 23.4 25.8 22.9 97 0.3 NW 15 22 8 12 1007.6 1006.0 27.2
20/04:00am 23.3 26.0 22.8 97 0.3 NW 13 22 7 12 1007.5 1005.9 25.4
20/03:30am 23.2 25.8 22.7 97 0.3 NW 13 19 7 10 1007.5 1005.9 19.4
20/03:29am 23.2 25.8 22.7 97 0.3 NW 13 22 7 12 1007.5 1005.9 19.0
20/03:27am 23.2 25.8 22.7 97 0.3 NW 13 22 7 12 1007.5 1005.9 18.8
20/03:05am 22.6 25.3 22.1 97 0.3 WNW 11 19 6 10 1007.6 1006.0 12.6
20/03:00am 22.6 24.9 22.1 97 0.3 WNW 13 20 7 11 1007.7 1006.1 12.4
20/02:47am 22.5 24.8 22.0 97 0.3 WNW 13 20 7 11 1007.7 1006.1 12.4
20/02:30am 22.8 24.5 22.3 97 0.3 WNW 17 28 9 15 1007.9 1006.2 12.4
20/02:00am 23.1 25.7 22.6 97 0.3 NW 13 24 7 13 1008.3 1006.6 11.6
20/01:30am 23.1 26.0 22.4 96 0.5 WNW 11 19 6 10 1008.7 1007.0 8.2
20/01:25am 23.1 26.0 22.4 96 0.5 WNW 11 24 6 13 1008.7 1007.0 4.6
20/01:00am 23.2 26.5 22.5 96 0.5 WNW 9 20 5 11 1008.9 1007.2 3.6
20/12:30am 23.6 25.5 22.8 95 0.5 NNW 17 30 9 16 1009.2 1007.6 3.4
20/12:00am 24.2 27.7 23.5 96 0.5 NNW 11 17 6 9 1009.3 1007.7 3.2
 
Date/Time
WST
Temp
°C
App
Temp
°C
Dew
Point
°C
Rel
Hum
%
Delta-T
°C
Wind Press
QNH
hPa
Press
MSL
hPa
Rain since
9am
mm
Dir  Spd
km/h
Gust
km/h
Spd
kts
Gust
kts
19/11:37pm 23.8 27.4 23.1 96 0.5 NW 9 15 5 8 1009.3 1007.7 3.2
19/11:30pm 23.8 27.8 23.1 96 0.5 NW 7 11 4 6 1009.3 1007.7 3.2
19/11:17pm 24.0 27.7 23.3 96 0.5 NW 9 13 5 7 1009.3 1007.7 3.2
19/11:00pm 24.1 27.9 23.4 96 0.5 NW 9 15 5 8 1009.3 1007.7 3.2
19/10:30pm 24.1 28.5 23.4 96 0.5 NNW 6 22 3 12 1009.2 1007.6 3.0
19/10:14pm 24.3 28.8 23.6 96 0.5 NNW 6 13 3 7 1009.2 1007.6 3.0
19/10:00pm 24.1 28.3 23.4 96 0.5 NW 7 13 4 7 1009.2 1007.6 2.8
19/09:53pm 24.2 28.6 23.5 96 0.5 NW 6 11 3 6 1009.2 1007.6 2.6
19/09:30pm 23.9 27.8 23.0 95 0.6 WNW 7 11 4 6 1008.9 1007.2 2.4
19/09:00pm 23.8 27.0 23.0 95 0.5 WNW 11 17 6 9 1008.6 1006.9 2.4
19/08:30pm 24.4 28.2 23.5 95 0.6 NW 9 13 5 7 1008.5 1006.8 2.2
19/08:00pm 24.4 28.2 23.5 95 0.6 WNW 9 15 5 8 1008.4 1006.7 2.2
19/07:30pm 24.5 28.4 23.6 95 0.6 NW 9 13 5 7 1008.2 1006.5 2.2
19/07:02pm 24.5 28.4 23.6 95 0.6 NW 9 13 5 7 1008.0 1006.3 2.2
19/07:00pm 24.4 28.6 23.5 95 0.6 WNW 7 13 4 7 1007.9 1006.2 2.2
19/06:48pm 24.4 28.6 23.5 95 0.6 NW 7 13 4 7 1007.6 1006.0 2.2
19/06:47pm 24.3 28.5 23.4 95 0.6 NW 7 13 4 7 1007.6 1006.0 2.2
19/06:43pm 24.5 28.8 23.6 95 0.6 NW 7 11 4 6 1007.6 1006.0 2.0
19/06:34pm 24.4 28.6 23.5 95 0.6 WNW 7 11 4 6 1007.6 1006.0 1.8
19/06:30pm 24.5 28.8 23.6 95 0.6 WNW 7 11 4 6 1007.6 1006.0 1.4
19/06:16pm 24.4 28.6 23.5 95 0.6 W 7 11 4 6 1007.5 1005.9 1.0
19/06:00pm 24.2 28.3 23.3 95 0.6 SW 7 11 4 6 1007.6 1006.0 0.8
19/05:54pm 23.9 27.8 22.9 94 0.7 SW 7 13 4 7 1007.5 1005.9 0.8
19/05:33pm 24.5 28.3 23.5 94 0.7 W 9 15 5 8 1007.4 1005.8 0.4
19/05:30pm 24.5 28.3 23.5 94 0.7 W 9 15 5 8 1007.4 1005.8 0.2
19/05:00pm 24.9 28.6 23.3 91 1.1 WNW 9 17 5 9 1007.2 1005.6 0.0
19/04:30pm 25.3 29.1 23.4 89 1.3 WNW 9 15 5 8 1007.0 1005.4 0.0
19/04:00pm 26.2 29.2 23.3 84 2.0 WNW 13 17 7 9 1007.0 1005.4 0.0
19/03:30pm 26.9 29.7 23.6 82 2.3 WNW 15 24 8 13 1007.6 1006.0 0.0
19/03:00pm 26.9 29.7 23.6 82 2.3 WNW 15 22 8 12 1008.1 1006.4 0.0
19/02:30pm 26.7 29.2 23.2 81 2.4 WNW 15 24 8 13 1008.3 1006.6 0.0
19/02:00pm 26.6 30.1 23.5 83 2.1 NW 11 19 6 10 1008.6 1006.9 0.0
19/01:48pm 26.7 29.8 23.6 83 2.1 NW 13 20 7 11 1008.8 1007.1 0.0
19/01:30pm 27.4 30.9 23.6 80 2.6 NW 11 17 6 9 1008.8 1007.1 0.0
19/01:00pm 27.0 30.3 22.6 77 3.0 W 9 15 5 8 1009.1 1007.4 0.0
19/12:56pm 27.5 31.2 23.3 78 2.9 W 9 17 5 9 1009.1 1007.4 0.0
19/12:30pm 27.5 30.9 23.3 78 2.9 NW 11 15 6 8 1009.1 1007.4 0.0
19/12:27pm 27.8 31.6 24.0 80 2.6 NW 11 17 6 9 1009.1 1007.4 0.0
19/12:00pm 26.8 30.5 23.3 81 2.4 WNW 9 15 5 8 1009.2 1007.6 0.0
19/11:30am 27.4 30.5 22.1 73 3.6 W 9 15 5 8 1009.2 1007.6 0.0
19/11:00am 26.8 29.9 22.8 79 2.7 WNW 11 19 6 10 1009.2 1007.6 0.0
19/10:34am 26.2 29.4 23.7 86 1.7 WNW 13 19 7 10 1009.3 1007.7 0.0
19/10:30am 25.9 28.9 23.4 86 1.7 WNW 13 19 7 10 1009.4 1007.8 0.0
19/10:00am 25.0 28.3 23.2 90 1.2 W 11 19 6 10 1009.4 1007.8 2.2
19/09:30am 25.3 28.4 23.5 90 1.2 WNW 13 20 7 11 1009.6 1008.0 2.0
19/09:24am 25.0 28.4 23.4 91 1.1 WNW 11 19 6 10 1009.6 1008.0 2.0
19/09:00am 24.3 26.9 22.7 91 1.1 W 13 19 7 10 1009.8 1008.2 2.0
19/08:30am 24.3 27.5 23.1 93 0.8 WNW 11 19 6 10 1009.4 1007.8 2.0
19/08:24am 24.1 27.6 22.9 93 0.8 WNW 9 15 5 8 1009.3 1007.7 2.0
19/08:00am 24.4 26.9 23.2 93 0.8 NW 15 26 8 14 1009.4 1007.8 2.0
19/07:30am 24.7 28.7 23.7 94 0.7 WNW 9 19 5 10 1009.0 1007.3 2.0
19/07:00am 24.5 28.4 23.6 95 0.6 WNW 9 15 5 8 1008.8 1007.1 2.0
19/06:45am 24.5 28.7 23.5 94 0.7 WNW 7 15 4 8 1008.6 1006.9 2.0
19/06:30am 24.3 28.0 23.3 94 0.7 WNW 9 15 5 8 1008.4 1006.7 2.0
19/06:21am 24.2 27.5 23.2 94 0.7 WNW 11 15 6 8 1008.4 1006.7 2.0
19/06:00am 24.4 28.2 23.5 95 0.6 WNW 9 17 5 9 1008.2 1006.5 2.0
19/05:30am 24.3 28.1 23.4 95 0.6 WNW 9 17 5 9 1008.0 1006.3 2.0
19/05:00am 24.5 28.0 23.6 95 0.6 WNW 11 19 6 10 1008.0 1006.3 2.0
19/04:30am 24.4 28.2 23.5 95 0.6 WNW 9 17 5 9 1007.7 1006.1 2.0
19/04:08am 24.3 27.7 23.3 94 0.7 WNW 11 17 6 9 1008.0 1006.3 2.0
19/04:00am 24.4 27.8 23.4 94 0.7 WNW 11 19 6 10 1008.1 1006.4 2.0
19/03:30am 24.4 27.7 23.2 93 0.8 WNW 11 20 6 11 1008.4 1006.7 2.0
19/03:10am 24.4 28.1 23.2 93 0.8 WNW 9 13 5 7 1008.5 1006.8 2.0
19/03:00am 24.5 27.9 23.3 93 0.8 NW 11 17 6 9 1008.6 1006.9 2.0
19/02:50am 24.9 28.6 23.3 91 1.1 WNW 9 19 5 10 1008.6 1006.9 1.6
19/02:30am 25.2 29.1 23.6 91 1.1 WNW 9 15 5 8 1008.7 1007.0 0.0
19/02:00am 25.1 28.9 23.5 91 1.1 WNW 9 13 5 7 1009.1 1007.4 0.0
19/01:42am 25.1 29.3 23.5 91 1.1 WNW 7 15 4 8 1009.3 1007.7 0.0
19/01:39am 25.1 29.3 23.5 91 1.1 NW 7 11 4 6 1009.3 1007.7 0.0
19/01:30am 25.1 28.6 23.5 91 1.1 WNW 11 15 6 8 1009.4 1007.8 0.0
19/01:00am 25.2 28.9 23.3 89 1.3 WNW 9 15 5 8 1009.8 1008.2 0.0
19/12:57am 25.2 28.9 23.3 89 1.3 WNW 9 17 5 9 1009.8 1008.2 0.0
19/12:46am 25.1 28.8 23.2 89 1.3 WNW 9 17 5 9 1009.8 1008.2 0.0
19/12:36am 25.1 28.8 23.2 89 1.3 WNW 9 17 5 9 1009.9 1008.3 0.0
19/12:30am 25.1 28.8 23.3 90 1.2 WNW 9 17 5 9 1009.9 1008.3 0.0
19/12:29am 25.0 28.7 23.2 90 1.2 WNW 9 17 5 9 1009.9 1008.3 0.0
19/12:18am 25.1 28.4 23.2 89 1.3 WNW 11 17 6 9 1009.9 1008.3 0.0
19/12:10am 25.2 28.9 23.3 89 1.3 WNW 9 13 5 7 1010.0 1008.4 0.0
19/12:00am 25.2 28.8 23.1 88 1.4 WNW 9 15 5 8 1010.0 1008.4 0.0
 
Date/Time
WST
Temp
°C
App
Temp
°C
Dew
Point
°C
Rel
Hum
%
Delta-T
°C
Wind Press
QNH
hPa
Press
MSL
hPa
Rain since
9am
mm
Dir  Spd
km/h
Gust
km/h
Spd
kts
Gust
kts
18/11:30pm 25.3 28.2 23.2 88 1.4 WNW 13 19 7 10 1010.3 1008.7 0.0
18/11:00pm 25.2 28.7 22.9 87 1.6 NW 9 15 5 8 1010.2 1008.6 0.0
18/10:30pm 25.3 29.0 23.2 88 1.4 WNW 9 15 5 8 1010.1 1008.5 0.0
18/10:00pm 25.3 29.0 23.2 88 1.4 WNW 9 15 5 8 1010.1 1008.5 0.0
18/09:52pm 25.3 29.4 23.2 88 1.4 WNW 7 15 4 8 1010.1 1008.5 0.0
18/09:33pm 25.3 29.2 23.0 87 1.6 WNW 7 11 4 6 1010.1 1008.5 0.0
18/09:30pm 25.3 28.9 23.0 87 1.6 WNW 9 11 5 6 1010.1 1008.5 0.0
18/09:00pm 25.3 29.2 23.0 87 1.6 WNW 7 13 4 7 1009.9 1008.3 0.0
18/08:30pm 25.2 28.3 22.9 87 1.6 WNW 11 17 6 9 1009.6 1008.0 0.0
18/08:00pm 25.3 28.5 23.0 87 1.6 WNW 11 19 6 10 1009.3 1007.7 0.0
18/07:30pm 25.3 28.8 22.8 86 1.7 WNW 9 17 5 9 1008.9 1007.2 0.0
18/07:00pm 25.6 29.1 22.9 85 1.8 WNW 9 17 5 9 1008.7 1007.0 0.0
18/06:51pm 25.7 29.3 23.0 85 1.8 WNW 9 15 5 8 1008.7 1007.0 0.0
18/06:39pm 25.9 29.5 23.0 84 2.0 WNW 9 19 5 10 1008.6 1006.9 0.0
18/06:30pm 25.8 28.9 22.9 84 2.0 WNW 11 17 6 9 1008.6 1006.9 0.0
18/06:01pm 26.3 29.9 23.0 82 2.3 WNW 9 17 5 9 1008.3 1006.6 0.0
18/06:00pm 26.5 30.3 23.4 83 2.1 WNW 9 20 5 11 1008.2 1006.5 0.0
18/05:30pm 26.1 28.7 22.6 81 2.4 WNW 13 20 7 11 1008.1 1006.4 0.0
18/05:00pm 27.0 29.6 22.6 77 3.0 WNW 13 26 7 14 1007.7 1006.1 0.0
18/04:30pm 27.5 30.5 23.3 78 2.9 WNW 13 19 7 10 1007.6 1006.0 0.0
18/04:00pm 27.3 30.4 23.5 80 2.6 W 13 19 7 10 1007.6 1006.0 0.0
18/03:30pm 27.6 31.6 23.8 80 2.6 WNW 9 15 5 8 1007.9 1006.2 0.0
18/03:00pm 26.9 30.8 23.6 82 2.3 WNW 9 17 5 9 1008.2 1006.5 0.0
18/02:35pm 27.5 30.3 23.7 80 2.6 WNW 15 24 8 13 1008.6 1006.9 0.0
18/02:30pm 27.1 29.9 23.6 81 2.4 WNW 15 24 8 13 1008.6 1006.9 0.0
18/02:00pm 26.7 29.4 23.4 82 2.3 WNW 15 24 8 13 1008.8 1007.1 0.0
18/01:30pm 26.4 28.0 23.3 83 2.1 WNW 20 28 11 15 1009.0 1007.3 0.0
18/01:00pm 26.7 28.7 23.0 80 2.5 WNW 17 28 9 15 1009.3 1007.7 0.0
18/12:43pm 27.3 30.3 24.0 82 2.3 WNW 15 24 8 13 1009.5 1007.9 0.0
18/12:30pm 26.9 30.2 23.8 83 2.1 W 13 20 7 11 1009.6 1008.0 0.0
18/12:00pm 26.4 29.5 23.5 84 2.0 W 13 22 7 12 1009.9 1008.3 0.0
18/11:30am 26.7 29.9 23.0 80 2.5 W 11 22 6 12 1010.3 1008.7 0.0
18/11:00am 26.0 29.4 23.3 85 1.9 W 11 20 6 11 1010.5 1008.9 0.0
18/10:30am 25.6 28.7 23.5 88 1.4 W 13 20 7 11 1010.7 1009.1 0.0
18/10:00am 25.9 29.3 23.4 86 1.7 W 11 19 6 10 1010.7 1009.1 3.4
18/09:30am 24.7 28.3 23.1 91 1.1 W 9 17 5 9 1010.5 1008.9 3.4
18/09:00am 24.0 26.9 23.1 95 0.6 WSW 13 19 7 10 1010.2 1008.6 3.4
18/08:30am 22.9 25.6 22.1 95 0.5 W 11 17 6 9 1010.5 1008.9 3.4
18/08:00am 22.3 23.8 21.3 94 0.7 WSW 15 22 8 12 1010.3 1008.7 3.4
18/07:42am 22.4 24.1 21.6 95 0.5 WSW 15 22 8 12 1010.2 1008.6 3.2
18/07:30am 22.5 23.8 21.7 95 0.5 WSW 17 28 9 15 1010.1 1008.5 3.0
18/07:29am 22.6 24.0 21.8 95 0.5 WSW 17 28 9 15 1010.1 1008.5 3.0
18/07:18am 22.9 25.2 22.1 95 0.5 WSW 13 28 7 15 1010.1 1008.5 2.2
18/07:16am 23.1 25.5 22.3 95 0.5 W 13 22 7 12 1010.1 1008.5 1.8
18/07:00am 23.1 25.8 22.1 94 0.7 WSW 11 20 6 11 1009.8 1008.2 1.8
18/06:42am 22.7 25.3 21.9 95 0.5 WSW 11 19 6 10 1009.4 1007.8 1.8
18/06:30am 22.7 25.0 22.0 96 0.5 WSW 13 24 7 13 1009.3 1007.7 1.8
18/06:00am 23.1 25.1 22.3 95 0.5 SW 15 26 8 14 1009.0 1007.3 1.6
18/05:56am 23.1 25.1 22.3 95 0.5 SW 15 26 8 14 1009.0 1007.3 1.6
18/05:50am 23.1 25.0 22.1 94 0.7 SW 15 26 8 14 1009.0 1007.3 1.6
18/05:48am 23.1 25.0 22.1 94 0.7 SW 15 26 8 14 1008.9 1007.2 1.6
18/05:35am 23.2 24.7 22.0 93 0.8 SW 17 26 9 14 1009.1 1007.4 1.4
18/05:30am 23.3 24.7 21.9 92 0.9 SW 17 26 9 14 1009.1 1007.4 1.2
18/05:16am 24.0 26.8 22.3 90 1.1 WSW 11 19 6 10 1009.0 1007.3 1.0
18/05:00am 24.1 27.0 22.5 91 1.1 W 11 19 6 10 1008.8 1007.1 1.0
18/04:30am 24.2 27.3 22.8 92 1.0 W 11 17 6 9 1008.8 1007.1 1.0
18/04:00am 24.0 27.1 22.8 93 0.8 W 11 19 6 10 1008.9 1007.2 1.0
18/03:30am 24.0 26.8 22.3 90 1.1 W 11 19 6 10 1009.0 1007.3 1.0
18/03:05am 24.3 27.2 23.1 93 0.8 W 13 19 7 10 1008.9 1007.2 1.0
18/03:00am 24.4 27.3 23.2 93 0.8 WSW 13 20 7 11 1009.0 1007.3 1.0
18/02:51am 24.7 28.7 23.7 94 0.7 WSW 9 17 5 9 1009.1 1007.4 1.0
18/02:30am 24.8 28.4 23.8 94 0.7 W 11 20 6 11 1009.3 1007.7 1.0
18/02:00am 24.7 28.3 23.7 94 0.7 W 11 19 6 10 1009.4 1007.8 1.0
18/01:38am 24.6 28.1 23.6 94 0.7 W 11 19 6 10 1009.3 1007.7 1.0
18/01:30am 24.4 27.8 23.4 94 0.7 W 11 19 6 10 1009.4 1007.8 1.0
18/01:26am 24.4 27.7 23.2 93 0.8 W 11 19 6 10 1009.6 1008.0 0.8
18/01:00am 24.7 28.3 23.7 94 0.7 W 11 17 6 9 1009.9 1008.3 0.4
18/12:52am 24.6 28.1 23.6 94 0.7 WSW 11 17 6 9 1010.1 1008.5 0.4
18/12:30am 24.9 28.9 23.7 93 0.8 WSW 9 15 5 8 1010.4 1008.8 0.4
18/12:00am 25.2 29.2 23.8 92 1.0 W 9 17 5 9 1010.3 1008.7 0.4
 
Date/Time
WST
Temp
°C
App
Temp
°C
Dew
Point
°C
Rel
Hum
%
Delta-T
°C
Wind Press
QNH
hPa
Press
MSL
hPa
Rain since
9am
mm
Dir  Spd
km/h
Gust
km/h
Spd
kts
Gust
kts
17/11:30pm 25.4 29.5 24.0 92 1.0 W 9 17 5 9 1010.5 1008.9 0.0
17/11:00pm 25.4 29.5 24.0 92 1.0 WSW 9 15 5 8 1010.4 1008.8 0.0
17/10:30pm 25.3 28.9 23.7 91 1.1 WNW 11 22 6 12 1010.4 1008.8 0.0
17/10:09pm 25.2 29.1 23.6 91 1.1 W 9 17 5 9 1010.3 1008.7 0.0
17/10:00pm 25.2 29.1 23.6 91 1.1 W 9 17 5 9 1010.2 1008.6 0.0
17/09:30pm 25.0 28.7 23.2 90 1.2 W 9 17 5 9 1010.0 1008.4 0.0
17/09:00pm 25.1 28.4 23.2 89 1.3 W 11 17 6 9 1009.8 1008.2 0.0
17/08:30pm 25.1 28.4 23.2 89 1.3 W 11 19 6 10 1009.6 1008.0 0.0
17/08:00pm 25.2 28.6 23.3 89 1.3 W 11 17 6 9 1009.3 1007.7 0.0
17/07:30pm 25.5 29.6 23.2 87 1.6 W 7 13 4 7 1009.6 1008.0 0.0
17/07:00pm 26.0 29.7 23.3 85 1.9 W 9 20 5 11 1009.1 1007.4 0.0
17/06:30pm 26.5 29.3 23.0 81 2.4 W 13 22 7 12 1008.5 1006.8 0.0
17/06:00pm 26.7 29.8 23.6 83 2.1 W 13 24 7 13 1008.3 1006.6 0.0
17/05:30pm 26.9 29.1 23.2 80 2.5 W 17 30 9 16 1008.1 1006.4 0.0
17/05:00pm 27.3 29.7 23.7 81 2.5 W 17 28 9 15 1008.0 1006.3 0.0
17/04:30pm 27.1 29.9 23.6 81 2.4 W 15 26 8 14 1007.9 1006.2 0.0
17/04:28pm 27.1 29.6 23.8 82 2.3 W 17 26 9 14 1007.9 1006.2 0.0
17/04:00pm 27.0 30.4 24.1 84 2.0 WNW 13 24 7 13 1008.1 1006.4 0.0
17/03:54pm 26.8 29.6 23.7 83 2.1 W 15 24 8 13 1008.1 1006.4 0.0
17/03:30pm 27.5 29.9 23.7 80 2.6 WNW 17 30 9 16 1008.2 1006.5 0.0
17/03:01pm 27.1 28.9 23.3 80 2.6 W 19 30 10 16 1008.3 1006.6 0.0
17/03:00pm 27.3 29.7 23.7 81 2.5 W 17 30 9 16 1008.3 1006.6 0.0
17/02:45pm 27.3 29.7 23.7 81 2.5 W 17 32 9 17 1008.4 1006.7 0.0
17/02:31pm 28.0 30.6 24.0 79 2.8 W 17 33 9 18 1008.4 1006.7 0.0
17/02:30pm 28.0 30.7 24.2 80 2.7 W 17 30 9 16 1008.4 1006.7 0.0
17/02:00pm 26.9 29.5 24.0 84 2.0 W 17 28 9 15 1008.9 1007.2 0.0
17/01:30pm 26.8 29.5 24.1 85 1.9 W 17 28 9 15 1009.2 1007.6 0.0
17/01:00pm 27.2 30.3 24.1 83 2.2 WNW 15 24 8 13 1009.3 1007.7 0.0
17/12:30pm 27.6 30.2 24.0 81 2.5 WNW 17 26 9 14 1009.7 1008.1 0.0
17/12:10pm 27.0 30.3 23.9 83 2.2 W 13 24 7 13 1010.0 1008.4 0.0
17/12:00pm 27.3 30.5 23.7 81 2.5 WNW 13 20 7 11 1010.1 1008.5 0.0
17/11:30am 27.6 30.9 23.8 80 2.6 W 13 20 7 11 1010.4 1008.8 0.0
17/11:00am 26.9 30.0 23.6 82 2.3 W 13 20 7 11 1010.6 1009.0 0.0
17/10:30am 26.6 30.3 23.9 85 1.9 W 11 19 6 10 1010.8 1009.2 0.0
17/10:00am 26.5 30.5 23.8 85 1.9 W 9 17 5 9 1010.8 1009.2 0.0
17/09:30am 26.2 29.8 23.7 86 1.7 WSW 11 17 6 9 1010.7 1009.1 0.0
17/09:00am 26.6 30.6 24.4 88 1.5 W 11 19 6 10 1010.6 1009.0 0.0
17/08:30am 25.8 30.1 24.2 91 1.1 W 9 17 5 9 1010.5 1008.9 0.0
17/08:00am 25.2 29.5 24.2 94 0.7 W 9 13 5 7 1010.4 1008.8 0.0
17/07:30am 24.5 28.4 23.6 95 0.6 WNW 9 13 5 7 1010.1 1008.5 0.0

Other formats

Comma delimited format used in spreadsheet applications
http://www.bom.gov.au/fwo/IDW60801/IDW60801.96995.axf

JavaScript Object Notation format (JSON) in row-major order
http://www.bom.gov.au/fwo/IDW60801/IDW60801.96995.json

Data quality

Most of these data are generated automatically and are frequently updated. Quality checks on data are not normally performed. It is possible for incorrect values to appear. Refer to information at About Latest Weather Observations and please check the disclaimer before using these data.